Lake Worth, FL (33467)

5:34 PM EDT on August 24, 2016 (GMT -0400)
Suburban Lake Worth/Lantana | | Change Station

Elev 21 ft 26.60 °N, 80.16 °W | Updated 5 seconds ago

Mostly Cloudy
Mostly Cloudy
87.1 °F
Feels Like 84 °F
N
0.0
Wind Variable Wind from East
Gusts 5.0 mph

Today
High -- | Low -- °F
--% Chance of Precip.
Yesterday
High -- | Low -- °F
Precip. -- in
Pressure 30.01 in
Visibility 10.0 miles
Clouds Scattered Clouds 2400 ft
Scattered Clouds 4000 ft
Mostly Cloudy 21000 ft
Heat Index 84 °F
Dew Point Not available.
Humidity Not available.
Rainfall 0.00 in
Snow Depth Not available.
6:57 AM 7:48 PM
Waning Gibbous, 53% visible
METAR KPBI 242053Z 04014KT 10SM SCT024 SCT040 BKN210 32/24 A3001 RMK AO2 LTG DSNT SW SLP161 CB DSNT NE E SW 60000 T03220239 58016
Pressure 30.01 in
Visibility 10.0 miles
Clouds Scattered Clouds 2400 ft
Scattered Clouds 4000 ft
Mostly Cloudy 21000 ft
Heat Index 84 °F
Dew Point Not available.
Humidity Not available.
Rainfall 0.00 in
Snow Depth Not available.
6:57 AM 7:48 PM
Waning Gibbous, 53% visible
METAR KPBI 242053Z 04014KT 10SM SCT024 SCT040 BKN210 32/24 A3001 RMK AO2 LTG DSNT SW SLP161 CB DSNT NE E SW 60000 T03220239 58016
A tropical disturbance we've monitored since last week, may have a dangerous future in store for the southeast U.S. and Gulf coasts this weekend into next week. The National Weather Service has issued a flash flood watch for Puerto Rico and the U.S. Virgin Islands. Rainfall totals of 2-4 inches (locally higher) are expected through Wednesday night in those areas.

The National Hurricane Center says this system has a medium to high chance of development into a tropical depression or tropical storm over the next 2 to 5 days. A tight consensus of our guidance suggests the disturbance should continue in a general west or west-northwest trajectory the next several days.

10-Day Weather Forecast

Almanac

Astronomy

Aug. 24, 2016 Rise Set
Actual Time
Civil Twilight
Nautical Twilight
Astronomical Twilight
Moon
Length of Visible Light
Length of Day
Tomorrow will be .
, % of the Moon is Illuminated

Today's Extremes

State Highs State Lows

Community

WunderPhotos

Upload Photos

1,934,720 photos uploaded!

WunderBlog® & News

Nearby

Air Quality

  Air Quality AQ Index Pollutant
Not available.

Snow Depth

Station Depth Elevation

Earthquake Activity

City Distance Mag. Time & Date
Minimum magnitude displayed is 2.5.

Coastal Water Temperatures

Place Temperature

Stations

Nearby Weather Stations

Station Location Temp. Windchill Dew Point Humidity Wind Precip. Elev Updated Type
                   

Watches & Warnings

There are currently no watches in effect.